createdAt,value
2023-01-05T00:01:57.394Z,12.20
2023-01-05T00:05:03.723Z,11.27
2023-01-05T00:08:10.242Z,15.47
2023-01-05T00:11:37.230Z,11.70
2023-01-05T00:15:01.358Z,11.00
2023-01-05T00:18:24.961Z,11.17
2023-01-05T00:21:49.145Z,9.80
2023-01-05T00:24:55.684Z,13.43
2023-01-05T00:28:03.717Z,11.33
2023-01-05T00:31:10.620Z,13.20
2023-01-05T00:34:16.912Z,10.17
2023-01-05T00:37:24.405Z,9.73
2023-01-05T00:40:30.900Z,10.23
2023-01-05T00:43:38.748Z,9.10
2023-01-05T00:46:45.154Z,9.20
2023-01-05T00:49:51.617Z,6.93
2023-01-05T00:52:57.975Z,8.50
2023-01-05T00:56:04.771Z,8.20
2023-01-05T00:59:12.654Z,9.20
2023-01-05T01:02:19.179Z,8.83
2023-01-05T01:05:25.288Z,8.33
2023-01-05T01:08:31.744Z,9.13
2023-01-05T01:11:38.100Z,9.17
2023-01-05T01:14:48.122Z,8.07
2023-01-05T01:17:54.358Z,9.23
2023-01-05T01:21:00.746Z,8.77
2023-01-05T01:24:07.359Z,12.53
2023-01-05T01:27:13.822Z,8.73
2023-01-05T01:30:21.307Z,9.07
2023-01-05T01:33:27.628Z,8.83
2023-01-05T01:36:33.877Z,9.27
2023-01-05T01:39:40.079Z,11.03
2023-01-05T01:42:46.587Z,7.40
2023-01-05T01:45:55.218Z,8.13
2023-01-05T01:49:06.368Z,9.27
2023-01-05T01:52:13.028Z,9.13
2023-01-05T01:55:20.926Z,9.00
2023-01-05T01:58:29.748Z,9.07
2023-01-05T02:01:37.597Z,7.10
2023-01-05T02:04:46.108Z,8.67
2023-01-05T02:07:52.237Z,7.20
2023-01-05T02:11:16.583Z,7.57
2023-01-05T02:14:33.397Z,7.03
2023-01-05T02:17:49.826Z,8.73
2023-01-05T02:21:20.281Z,7.30
2023-01-05T02:24:44.256Z,7.53
2023-01-05T02:27:56.135Z,7.03
2023-01-05T02:31:14.418Z,9.07
2023-01-05T02:34:31.193Z,7.03
2023-01-05T02:37:43.113Z,7.80
2023-01-05T02:40:55.745Z,8.10
2023-01-05T02:44:03.452Z,6.87
2023-01-05T02:47:48.086Z,6.87
2023-01-05T02:51:06.806Z,8.20
2023-01-05T02:54:20.145Z,8.63
2023-01-05T02:57:46.418Z,5.93
2023-01-05T03:00:57.238Z,7.30
2023-01-05T03:04:09.652Z,6.20
2023-01-05T03:07:20.446Z,7.50
2023-01-05T03:10:59.297Z,6.77
2023-01-05T03:14:12.416Z,7.93
2023-01-05T03:17:27.083Z,8.33
2023-01-05T03:20:35.996Z,8.97
2023-01-05T03:24:01.515Z,8.53
2023-01-05T03:27:26.482Z,8.07
2023-01-05T03:30:58.519Z,9.97
2023-01-05T03:34:28.309Z,9.23
2023-01-05T03:37:38.928Z,11.87
2023-01-05T03:40:48.022Z,10.73
2023-01-05T03:43:54.467Z,11.47
2023-01-05T03:47:01.092Z,12.43
2023-01-05T03:50:08.817Z,10.97
2023-01-05T03:53:15.225Z,9.23
2023-01-05T03:56:22.666Z,11.07
2023-01-05T03:59:29.213Z,27.37
2023-01-05T04:02:35.889Z,31.90
2023-01-05T04:05:42.354Z,21.63
2023-01-05T04:08:48.732Z,18.13
2023-01-05T04:11:56.422Z,12.90
2023-01-05T04:15:03.148Z,15.63
2023-01-05T04:18:09.425Z,13.07
2023-01-05T04:21:15.784Z,13.07
2023-01-05T04:24:22.565Z,10.40
2023-01-05T04:27:30.272Z,10.90
2023-01-05T04:30:36.278Z,11.10
2023-01-05T04:33:45.530Z,11.83
2023-01-05T04:36:51.783Z,10.40
2023-01-05T04:39:58.139Z,13.30
2023-01-05T04:43:06.296Z,11.30
2023-01-05T04:46:12.462Z,11.37
2023-01-05T04:49:18.651Z,11.40
2023-01-05T04:52:24.653Z,16.67
2023-01-05T04:55:30.781Z,16.93
2023-01-05T04:58:38.583Z,11.50
2023-01-05T05:01:45.095Z,14.60
2023-01-05T05:04:51.229Z,13.33
2023-01-05T05:07:57.756Z,12.77
2023-01-05T05:11:04.047Z,11.00
2023-01-05T05:14:11.825Z,15.33
2023-01-05T05:17:18.561Z,12.87
2023-01-05T05:20:24.692Z,13.33
2023-01-05T05:23:31.184Z,12.63
2023-01-05T05:26:37.384Z,16.47
2023-01-05T05:29:45.218Z,18.67
2023-01-05T05:32:51.690Z,18.30
2023-01-05T05:35:57.904Z,23.60
2023-01-05T05:39:03.798Z,25.53
2023-01-05T05:42:10.364Z,34.53
2023-01-05T05:45:18.086Z,30.63
2023-01-05T05:48:24.227Z,28.20
2023-01-05T05:51:30.303Z,23.13
2023-01-05T05:54:36.711Z,21.17
2023-01-05T05:57:43.099Z,20.87
2023-01-05T06:00:50.981Z,18.67
2023-01-05T06:03:57.477Z,22.07
2023-01-05T06:07:03.863Z,23.97
2023-01-05T06:10:10.754Z,20.50
2023-01-05T06:13:17.320Z,20.70
2023-01-05T06:16:25.360Z,24.97
2023-01-05T06:19:31.855Z,20.10
2023-01-05T06:22:38.441Z,14.60
2023-01-05T06:25:45.622Z,13.30
2023-01-05T06:28:51.871Z,12.20
2023-01-05T06:31:59.501Z,15.13
2023-01-05T06:35:06.931Z,14.37
2023-01-05T06:38:13.783Z,18.40
2023-01-05T06:41:20.334Z,14.53
2023-01-05T06:44:26.612Z,15.33
2023-01-05T06:47:34.825Z,14.30
2023-01-05T06:50:41.249Z,12.90
2023-01-05T06:53:47.464Z,13.93
2023-01-05T06:56:53.567Z,20.37
2023-01-05T06:59:59.598Z,19.43
2023-01-05T07:03:07.847Z,18.70
2023-01-05T07:06:15.721Z,16.87
2023-01-05T07:09:21.900Z,19.30
2023-01-05T07:12:28.577Z,19.17
2023-01-05T07:15:35.093Z,22.57
2023-01-05T07:18:42.561Z,25.10
2023-01-05T07:21:54.840Z,27.20
2023-01-05T07:25:02.646Z,25.83
2023-01-05T07:28:09.013Z,28.47
2023-01-05T07:31:15.716Z,26.53
2023-01-05T07:34:24.274Z,30.00
2023-01-05T07:37:30.433Z,21.70
2023-01-05T07:40:37.420Z,26.83
2023-01-05T07:43:43.755Z,26.60
2023-01-05T07:46:50.377Z,22.20
2023-01-05T07:49:58.160Z,14.97
2023-01-05T07:53:04.739Z,13.03
2023-01-05T07:56:12.531Z,14.20
2023-01-05T07:59:19.288Z,15.97
2023-01-05T08:02:32.232Z,16.43
2023-01-05T08:05:43.194Z,21.33
2023-01-05T08:08:49.973Z,23.07
2023-01-05T08:11:56.304Z,26.27
2023-01-05T08:15:02.287Z,30.57
2023-01-05T08:18:08.497Z,35.13
2023-01-05T08:21:16.464Z,43.87
2023-01-05T08:24:22.615Z,61.53
2023-01-05T08:27:29.043Z,46.17
2023-01-05T08:30:35.440Z,42.67
2023-01-05T08:33:42.099Z,30.83
2023-01-05T08:36:50.055Z,21.33
2023-01-05T08:39:56.898Z,19.97
2023-01-05T08:43:03.398Z,22.33
2023-01-05T08:46:10.067Z,22.37
2023-01-05T08:49:16.364Z,22.93
2023-01-05T08:52:24.397Z,14.13
2023-01-05T08:55:31.144Z,16.33
2023-01-05T08:58:38.111Z,12.37
2023-01-05T09:01:44.886Z,18.63
2023-01-05T09:04:51.085Z,17.83
2023-01-05T09:07:59.016Z,17.70
2023-01-05T09:11:09.228Z,17.43
2023-01-05T09:14:15.968Z,14.63
2023-01-05T09:17:22.201Z,12.90
2023-01-05T09:20:29.076Z,10.73
2023-01-05T09:23:39.669Z,7.87
2023-01-05T09:26:46.246Z,8.63
2023-01-05T09:29:52.552Z,7.73
2023-01-05T09:32:58.822Z,9.60
2023-01-05T09:36:05.678Z,6.87
2023-01-05T09:39:13.650Z,6.87
2023-01-05T09:42:23.536Z,10.60
2023-01-05T09:45:29.948Z,8.07
2023-01-05T09:48:41.556Z,7.70
2023-01-05T09:51:47.923Z,7.47
2023-01-05T09:54:56.217Z,8.43
2023-01-05T09:58:06.561Z,5.97
2023-01-05T10:01:16.295Z,6.27
2023-01-05T10:04:30.366Z,7.00
2023-01-05T10:07:44.451Z,8.93
2023-01-05T10:11:11.498Z,9.20
2023-01-05T10:14:23.660Z,8.40
2023-01-05T10:17:42.683Z,7.73
2023-01-05T10:21:08.579Z,7.90
2023-01-05T10:24:25.687Z,9.63
2023-01-05T10:27:40.925Z,8.97
2023-01-05T10:30:57.413Z,9.97
2023-01-05T10:34:16.378Z,8.27
2023-01-05T10:37:45.025Z,10.20
2023-01-05T10:41:04.800Z,8.93
2023-01-05T10:44:43.730Z,8.73
2023-01-05T10:47:51.200Z,8.20
2023-01-05T10:50:59.190Z,9.27
2023-01-05T10:54:06.993Z,10.27
2023-01-05T10:57:37.475Z,11.17
2023-01-05T11:00:45.504Z,10.23
2023-01-05T11:07:23.196Z,11.70
2023-01-05T11:10:32.535Z,9.70
2023-01-05T11:13:43.838Z,8.00
2023-01-05T11:16:54.750Z,9.90
2023-01-05T11:20:01.563Z,6.73
2023-01-05T11:23:35.706Z,8.53
2023-01-05T11:26:50.937Z,7.37
2023-01-05T11:30:20.503Z,7.07
2023-01-05T11:33:30.674Z,7.40
2023-01-05T11:36:37.215Z,7.43
2023-01-05T11:39:50.198Z,9.50
2023-01-05T11:42:56.768Z,9.57
2023-01-05T11:46:05.905Z,8.03
2023-01-05T11:49:13.694Z,8.77
2023-01-05T11:52:35.235Z,6.47
2023-01-05T11:55:41.999Z,15.83
2023-01-05T11:58:49.889Z,7.03
2023-01-05T12:02:12.634Z,5.13
2023-01-05T12:05:29.520Z,5.37
2023-01-05T12:08:42.869Z,5.30
2023-01-05T12:11:59.081Z,6.77
2023-01-05T12:15:35.770Z,5.03
2023-01-05T12:19:05.964Z,5.40
2023-01-05T12:22:45.391Z,7.83
2023-01-05T12:26:00.003Z,7.53
2023-01-05T12:37:10.942Z,6.27
2023-01-05T12:40:44.179Z,6.30
2023-01-05T12:44:02.851Z,7.10
2023-01-05T12:47:29.069Z,6.77
2023-01-05T12:50:43.127Z,6.37
2023-01-05T12:53:56.399Z,4.70
2023-01-05T12:57:08.993Z,6.93
2023-01-05T13:00:18.519Z,5.83
2023-01-05T13:03:31.812Z,7.63
2023-01-05T13:06:42.464Z,25.97
2023-01-05T13:10:02.340Z,12.63
2023-01-05T13:13:15.890Z,8.07
2023-01-05T13:16:25.080Z,7.57
2023-01-05T13:19:36.500Z,7.90
2023-01-05T13:22:45.976Z,7.07
2023-01-05T13:25:57.169Z,7.50
2023-01-05T13:29:05.371Z,8.87
2023-01-05T13:35:57.875Z,5.33
2023-01-05T13:39:31.770Z,7.60
2023-01-05T13:46:49.025Z,5.27
2023-01-05T13:50:37.349Z,8.60
2023-01-05T13:53:45.430Z,6.10
2023-01-05T13:56:52.109Z,10.13
2023-01-05T14:00:07.172Z,12.93
2023-01-05T14:03:24.153Z,6.10
2023-01-05T14:06:33.532Z,4.97
2023-01-05T14:09:44.323Z,7.60
2023-01-05T14:12:54.307Z,6.77
2023-01-05T14:16:00.584Z,7.43
2023-01-05T14:19:16.002Z,10.07
2023-01-05T14:22:40.173Z,11.90
2023-01-05T14:25:52.889Z,20.60
2023-01-05T14:28:59.216Z,21.63
2023-01-05T14:32:09.038Z,13.87
2023-01-05T14:35:24.725Z,8.57
2023-01-05T14:38:31.717Z,22.07
2023-01-05T14:41:38.152Z,41.77
2023-01-05T14:44:49.872Z,22.33
2023-01-05T14:47:58.375Z,19.97
2023-01-05T14:51:23.888Z,10.57
2023-01-05T14:54:56.096Z,16.00
2023-01-05T14:58:15.469Z,6.67
2023-01-05T15:01:27.278Z,8.53
2023-01-05T15:04:37.364Z,6.37
2023-01-05T15:07:52.570Z,10.73
2023-01-05T15:11:18.352Z,19.20
2023-01-05T15:14:51.534Z,15.87
2023-01-05T15:18:26.284Z,11.30
2023-01-05T15:21:52.861Z,7.30
2023-01-05T15:25:26.946Z,6.80
2023-01-05T15:29:10.125Z,6.43
2023-01-05T15:32:20.408Z,8.73
2023-01-05T15:35:36.989Z,9.50
2023-01-05T15:38:47.112Z,9.27
2023-01-05T15:41:58.331Z,9.87
2023-01-05T15:45:08.879Z,10.43
2023-01-05T15:48:19.425Z,9.37
2023-01-05T15:51:29.928Z,9.63
2023-01-05T15:54:36.528Z,8.17
2023-01-05T15:57:52.645Z,10.10
2023-01-05T16:01:05.807Z,8.23
2023-01-05T16:04:16.371Z,10.33
2023-01-05T16:07:22.501Z,10.57
2023-01-05T16:10:32.577Z,11.27
2023-01-05T16:13:43.681Z,12.27
2023-01-05T16:16:54.654Z,16.33
2023-01-05T16:20:04.732Z,17.70
2023-01-05T16:23:19.610Z,15.93
2023-01-05T16:26:26.300Z,15.87
2023-01-05T16:29:39.431Z,8.70
2023-01-05T16:32:57.775Z,9.83
2023-01-05T16:36:13.484Z,22.17
2023-01-05T16:39:25.001Z,10.17
2023-01-05T16:42:40.314Z,9.93
2023-01-05T16:45:50.218Z,12.30
2023-01-05T16:49:00.116Z,14.83
2023-01-05T16:52:09.071Z,15.90
2023-01-05T16:55:28.199Z,14.83
2023-01-05T16:58:38.373Z,20.83
2023-01-05T17:01:46.579Z,22.20
2023-01-05T17:04:53.056Z,19.87
2023-01-05T17:08:05.829Z,32.53
2023-01-05T17:11:12.740Z,35.27
2023-01-05T17:14:20.833Z,21.83
2023-01-05T17:17:29.603Z,20.73
2023-01-05T17:20:41.587Z,18.03
2023-01-05T17:23:49.850Z,10.87
2023-01-05T17:26:56.569Z,13.37
2023-01-05T17:30:02.743Z,23.03
2023-01-05T17:33:11.359Z,24.83
2023-01-05T17:36:18.384Z,34.90
2023-01-05T17:39:25.274Z,26.37
2023-01-05T17:42:43.869Z,10.83
2023-01-05T17:45:49.908Z,10.77
2023-01-05T17:48:58.905Z,11.03
2023-01-05T17:52:05.513Z,10.20
2023-01-05T17:55:12.824Z,13.10
2023-01-05T17:58:19.299Z,14.93
2023-01-05T18:01:25.532Z,15.00
2023-01-05T18:04:33.234Z,13.60
2023-01-05T18:07:40.885Z,16.73
2023-01-05T18:10:48.076Z,21.37
2023-01-05T18:13:55.104Z,48.80
2023-01-05T18:17:01.342Z,43.67
2023-01-05T18:20:11.922Z,43.00
2023-01-05T18:23:18.945Z,56.67
2023-01-05T18:26:24.972Z,62.03
2023-01-05T18:29:31.355Z,55.57
2023-01-05T18:32:37.992Z,71.23
2023-01-05T18:35:45.702Z,53.83
2023-01-05T18:38:52.337Z,51.47
2023-01-05T18:41:59.026Z,48.93
2023-01-05T18:45:18.607Z,53.47
2023-01-05T18:48:26.646Z,59.50
2023-01-05T18:51:35.088Z,52.63
2023-01-05T18:54:42.189Z,36.77
2023-01-05T18:57:48.473Z,27.50
2023-01-05T19:00:54.759Z,28.10
2023-01-05T19:04:01.047Z,28.53
2023-01-05T19:07:08.871Z,30.23
2023-01-05T19:10:15.402Z,31.67
2023-01-05T19:13:21.892Z,45.13
2023-01-05T19:16:30.350Z,48.70
2023-01-05T19:19:36.681Z,62.23
2023-01-05T19:22:45.925Z,57.63
2023-01-05T19:25:52.555Z,63.00
2023-01-05T19:28:59.536Z,48.40
2023-01-05T19:32:06.246Z,46.43
2023-01-05T19:35:12.773Z,45.27
2023-01-05T19:38:20.219Z,39.40
2023-01-05T19:41:26.270Z,19.50
2023-01-05T19:44:32.463Z,20.93
2023-01-05T19:47:40.864Z,20.17
2023-01-05T19:50:57.307Z,23.33
2023-01-05T19:54:06.116Z,36.97
2023-01-05T19:57:12.652Z,42.97
2023-01-05T20:00:19.509Z,36.67
2023-01-05T20:03:26.034Z,29.73
2023-01-05T20:06:34.546Z,34.73
2023-01-05T20:09:42.444Z,39.00
2023-01-05T20:12:48.682Z,18.93
2023-01-05T20:15:55.535Z,16.70
2023-01-05T20:19:02.009Z,19.53
2023-01-05T20:22:11.997Z,29.13
2023-01-05T20:25:20.098Z,25.23
2023-01-05T20:28:26.396Z,31.03
2023-01-05T20:31:35.482Z,28.07
2023-01-05T20:34:43.286Z,20.93
2023-01-05T20:37:49.877Z,30.17
2023-01-05T20:40:57.726Z,23.27
2023-01-05T20:44:05.002Z,26.53
2023-01-05T20:47:12.211Z,16.40
2023-01-05T20:50:18.437Z,22.53
2023-01-05T20:53:24.762Z,28.53
2023-01-05T20:56:38.559Z,41.73
2023-01-05T20:59:45.084Z,15.53
2023-01-05T21:02:51.829Z,14.20
2023-01-05T21:05:58.215Z,19.90
2023-01-05T21:09:05.884Z,31.43
2023-01-05T21:12:13.472Z,29.10
2023-01-05T21:15:19.979Z,32.30
2023-01-05T21:18:27.175Z,38.13
2023-01-05T21:21:34.575Z,38.43
2023-01-05T21:24:41.119Z,28.47
2023-01-05T21:27:49.087Z,12.27
2023-01-05T21:30:55.552Z,14.80
2023-01-05T21:34:02.252Z,19.27
2023-01-05T21:37:08.541Z,23.23
2023-01-05T21:40:15.277Z,34.60
2023-01-05T21:43:22.763Z,31.43
2023-01-05T21:46:29.234Z,45.40
2023-01-05T21:49:35.711Z,31.23
2023-01-05T21:53:07.833Z,30.07
2023-01-05T21:56:32.582Z,17.17
2023-01-05T21:59:41.021Z,24.33
2023-01-05T22:02:47.214Z,31.33
2023-01-05T22:05:53.411Z,23.53
2023-01-05T22:09:00.026Z,16.30
2023-01-05T22:12:08.770Z,21.57
2023-01-05T22:15:16.767Z,26.70
2023-01-05T22:18:24.311Z,26.43
2023-01-05T22:21:31.292Z,24.93
2023-01-05T22:24:38.573Z,24.20
2023-01-05T22:27:44.932Z,28.77
2023-01-05T22:30:52.968Z,28.83
2023-01-05T22:34:01.020Z,27.27
2023-01-05T22:37:07.507Z,26.63
2023-01-05T22:40:14.424Z,24.07
2023-01-05T22:43:20.676Z,20.80
2023-01-05T22:46:29.901Z,15.87
2023-01-05T22:49:36.440Z,16.83
2023-01-05T22:52:42.663Z,24.50
2023-01-05T22:55:49.072Z,27.13
2023-01-05T22:58:56.838Z,25.40
2023-01-05T23:02:04.808Z,30.10
2023-01-05T23:05:11.526Z,26.23
2023-01-05T23:08:17.801Z,18.53
2023-01-05T23:11:26.142Z,15.70
2023-01-05T23:14:32.981Z,21.73
2023-01-05T23:17:40.701Z,23.00
2023-01-05T23:20:53.871Z,29.13
2023-01-05T23:24:00.876Z,19.90
2023-01-05T23:27:07.202Z,17.03
2023-01-05T23:30:14.208Z,24.17
2023-01-05T23:33:24.594Z,19.47
2023-01-05T23:36:31.203Z,20.37
2023-01-05T23:39:37.619Z,21.20
2023-01-05T23:42:47.335Z,23.27
2023-01-05T23:45:59.703Z,18.07
2023-01-05T23:49:07.624Z,19.90
2023-01-05T23:52:14.122Z,16.43
2023-01-05T23:55:20.362Z,21.20
2023-01-05T23:58:26.600Z,19.63
